createdAt,value
2023-03-13T00:01:42.318Z,78.41
2023-03-13T00:04:12.510Z,78.36
2023-03-13T00:06:44.689Z,78.47
2023-03-13T00:09:14.842Z,78.59
2023-03-13T00:11:45.913Z,78.72
2023-03-13T00:14:15.220Z,78.70
2023-03-13T00:16:43.748Z,78.49
2023-03-13T00:19:12.383Z,78.54
2023-03-13T00:21:41.574Z,78.61
2023-03-13T00:24:17.740Z,78.17
2023-03-13T00:26:46.071Z,77.91
2023-03-13T00:29:14.236Z,77.92
2023-03-13T00:31:47.349Z,78.10
2023-03-13T00:34:18.006Z,78.12
2023-03-13T00:36:46.948Z,77.91
2023-03-13T00:39:24.658Z,77.60
2023-03-13T00:41:53.216Z,77.82
2023-03-13T00:44:23.637Z,77.35
2023-03-13T00:46:52.034Z,77.51
2023-03-13T00:49:20.332Z,77.02
2023-03-13T00:51:48.605Z,77.05
2023-03-13T00:54:16.545Z,77.20
2023-03-13T00:56:45.338Z,76.86
2023-03-13T00:59:14.625Z,76.61
2023-03-13T01:01:45.815Z,76.84
2023-03-13T01:04:14.580Z,76.80
2023-03-13T01:06:45.694Z,76.61
2023-03-13T01:09:15.541Z,76.68
2023-03-13T01:11:45.944Z,76.55
2023-03-13T01:14:17.458Z,76.32
2023-03-13T01:16:48.721Z,76.14
2023-03-13T01:19:17.211Z,75.69
2023-03-13T01:21:47.193Z,75.92
2023-03-13T01:24:16.946Z,76.03
2023-03-13T01:26:50.727Z,75.74
2023-03-13T01:29:20.572Z,75.72
2023-03-13T01:31:49.243Z,75.98
2023-03-13T01:34:23.374Z,76.03
2023-03-13T01:36:55.183Z,76.02
2023-03-13T01:39:23.490Z,75.78
2023-03-13T01:41:56.795Z,75.79
2023-03-13T01:44:26.442Z,75.72
2023-03-13T01:46:55.765Z,75.94
2023-03-13T01:49:33.700Z,75.96
2023-03-13T01:52:08.986Z,75.68
2023-03-13T01:54:56.256Z,75.70
2023-03-13T01:57:30.067Z,75.75
2023-03-13T02:00:16.479Z,75.93
2023-03-13T02:02:50.596Z,75.85
2023-03-13T02:05:23.066Z,75.90
2023-03-13T02:07:56.140Z,75.52
2023-03-13T02:10:25.809Z,75.62
2023-03-13T02:13:01.955Z,75.73
2023-03-13T02:15:33.466Z,75.56
2023-03-13T02:18:01.457Z,75.12
2023-03-13T02:20:33.584Z,74.89
2023-03-13T02:23:04.037Z,75.02
2023-03-13T02:25:49.028Z,75.03
2023-03-13T02:28:25.597Z,75.19
2023-03-13T02:30:58.946Z,74.94
2023-03-13T02:33:29.496Z,74.88
2023-03-13T02:36:00.157Z,74.94
2023-03-13T02:38:30.480Z,74.83
2023-03-13T02:40:59.509Z,74.74
2023-03-13T02:43:31.571Z,74.80
2023-03-13T02:46:17.648Z,74.72
2023-03-13T02:48:54.952Z,74.26
2023-03-13T02:51:42.221Z,74.29
2023-03-13T02:54:25.158Z,74.33
2023-03-13T02:56:56.075Z,74.38
2023-03-13T02:59:25.273Z,74.15
2023-03-13T03:01:53.320Z,74.01
2023-03-13T03:04:22.402Z,73.91
2023-03-13T03:06:54.400Z,74.08
2023-03-13T03:09:23.170Z,74.10
2023-03-13T03:11:56.400Z,73.92
2023-03-13T03:14:27.080Z,73.77
2023-03-13T03:16:55.925Z,73.41
2023-03-13T03:19:31.547Z,73.56
2023-03-13T03:22:00.273Z,73.90
2023-03-13T03:24:28.592Z,74.13
2023-03-13T03:26:56.727Z,74.00
2023-03-13T03:29:28.361Z,73.77
2023-03-13T03:31:57.144Z,73.96
2023-03-13T03:34:26.188Z,74.06
2023-03-13T03:36:56.351Z,73.99
2023-03-13T03:39:24.974Z,74.08
2023-03-13T03:41:53.004Z,74.13
2023-03-13T03:44:22.546Z,74.08
2023-03-13T03:46:58.724Z,74.17
2023-03-13T03:49:28.243Z,74.18
2023-03-13T03:51:56.668Z,74.10
2023-03-13T03:54:29.545Z,74.24
2023-03-13T03:56:58.306Z,74.14
2023-03-13T03:59:32.870Z,73.98
2023-03-13T04:02:08.871Z,73.81
2023-03-13T04:04:37.626Z,73.63
2023-03-13T04:07:10.220Z,73.73
2023-03-13T04:09:38.365Z,74.18
2023-03-13T04:12:09.242Z,74.43
2023-03-13T04:14:45.592Z,74.50
2023-03-13T04:17:17.308Z,74.64
2023-03-13T04:19:48.317Z,75.06
2023-03-13T04:22:16.699Z,75.35
2023-03-13T04:24:50.360Z,75.74
2023-03-13T04:27:19.613Z,75.67
2023-03-13T04:29:48.873Z,75.75
2023-03-13T04:32:36.741Z,75.97
2023-03-13T04:35:25.558Z,76.28
2023-03-13T04:38:08.327Z,75.99
2023-03-13T04:40:58.214Z,76.04
2023-03-13T04:43:30.134Z,76.30
2023-03-13T04:46:08.921Z,76.38
2023-03-13T04:48:56.266Z,76.44
2023-03-13T04:51:44.202Z,76.16
2023-03-13T04:54:27.561Z,76.16
2023-03-13T04:57:20.947Z,76.16
2023-03-13T05:00:12.661Z,76.07
2023-03-13T05:03:00.637Z,75.49
2023-03-13T05:05:49.776Z,75.35
2023-03-13T05:08:35.787Z,75.54
2023-03-13T05:11:23.269Z,75.44
2023-03-13T05:14:16.757Z,75.38
2023-03-13T05:17:13.034Z,74.85
2023-03-13T05:19:58.049Z,74.96
2023-03-13T05:22:58.518Z,75.06
2023-03-13T05:25:35.819Z,75.13
2023-03-13T05:28:17.410Z,74.88
2023-03-13T05:32:34.685Z,74.94
2023-03-13T05:35:15.653Z,74.52
2023-03-13T05:38:00.271Z,74.80
2023-03-13T05:40:36.747Z,73.96
2023-03-13T05:43:03.380Z,73.77
2023-03-13T05:45:53.552Z,73.74
2023-03-13T05:48:41.633Z,73.66
2023-03-13T05:51:25.907Z,73.35
2023-03-13T05:54:18.691Z,72.47
2023-03-13T05:57:08.366Z,71.98
2023-03-13T05:59:45.279Z,71.66
2023-03-13T06:02:41.151Z,71.00
2023-03-13T06:05:14.614Z,70.99
2023-03-13T06:07:41.697Z,71.44
2023-03-13T06:10:09.507Z,71.29
2023-03-13T06:12:36.416Z,70.63
2023-03-13T06:15:06.969Z,70.21
2023-03-13T06:17:52.732Z,70.35
2023-03-13T06:20:19.450Z,70.41
2023-03-13T06:22:52.076Z,70.27
2023-03-13T06:25:19.240Z,70.55
2023-03-13T06:27:45.828Z,70.62
2023-03-13T06:30:13.291Z,70.85
2023-03-13T06:32:40.323Z,70.97
2023-03-13T06:35:08.618Z,70.95
2023-03-13T06:37:35.962Z,71.41
2023-03-13T06:40:04.411Z,71.58
2023-03-13T06:42:31.685Z,71.75
2023-03-13T06:44:58.347Z,71.80
2023-03-13T06:47:25.591Z,71.71
2023-03-13T06:49:52.340Z,71.05
2023-03-13T06:52:20.273Z,71.00
2023-03-13T06:54:48.052Z,71.12
2023-03-13T06:57:14.759Z,70.96
2023-03-13T06:59:42.257Z,71.29
2023-03-13T07:02:12.312Z,71.54
2023-03-13T07:04:39.221Z,71.25
2023-03-13T07:07:06.167Z,71.26
2023-03-13T07:09:33.397Z,70.55
2023-03-13T07:12:02.820Z,70.89
2023-03-13T07:14:29.699Z,71.01
2023-03-13T07:16:58.497Z,71.03
2023-03-13T07:19:26.860Z,70.94
2023-03-13T07:21:53.753Z,70.50
2023-03-13T07:24:23.240Z,69.85
2023-03-13T07:27:04.143Z,69.18
2023-03-13T07:29:33.868Z,68.74
2023-03-13T07:32:01.051Z,68.93
2023-03-13T07:34:27.936Z,68.24
2023-03-13T07:36:55.673Z,68.43
2023-03-13T07:39:22.662Z,68.68
2023-03-13T07:41:49.683Z,68.57
2023-03-13T07:44:17.711Z,67.93
2023-03-13T07:46:45.428Z,66.76
2023-03-13T07:49:12.568Z,65.94
2023-03-13T07:51:43.914Z,66.37
2023-03-13T07:54:15.367Z,66.88
2023-03-13T07:56:42.129Z,66.93
2023-03-13T07:59:09.420Z,67.08
2023-03-13T08:01:37.084Z,66.88
2023-03-13T08:04:04.607Z,66.86
2023-03-13T08:06:40.496Z,66.30
2023-03-13T08:09:08.601Z,66.66
2023-03-13T08:11:35.730Z,66.45
2023-03-13T08:14:02.820Z,65.86
2023-03-13T08:16:33.709Z,65.51
2023-03-13T08:19:00.565Z,64.49
2023-03-13T08:21:29.963Z,63.81
2023-03-13T08:24:02.034Z,63.99
2023-03-13T08:26:32.808Z,64.31
2023-03-13T08:29:00.994Z,64.88
2023-03-13T08:31:32.883Z,63.23
2023-03-13T08:33:59.977Z,62.58
2023-03-13T08:36:31.630Z,61.74
2023-03-13T08:39:01.214Z,62.38
2023-03-13T08:41:29.824Z,62.87
2023-03-13T08:43:57.344Z,63.34
2023-03-13T08:46:25.000Z,61.91
2023-03-13T08:48:53.226Z,60.77
2023-03-13T08:51:21.299Z,60.87
2023-03-13T08:53:48.787Z,61.44
2023-03-13T08:56:24.869Z,62.00
2023-03-13T08:58:53.375Z,62.00
2023-03-13T09:01:21.288Z,62.14
2023-03-13T09:03:49.246Z,61.44
2023-03-13T09:06:19.307Z,60.10
2023-03-13T09:08:47.054Z,60.37
2023-03-13T09:11:18.337Z,61.40
2023-03-13T09:13:48.872Z,60.53
2023-03-13T09:16:22.831Z,61.16
2023-03-13T09:18:51.033Z,60.50
2023-03-13T09:21:19.708Z,60.56
2023-03-13T09:23:47.430Z,60.13
2023-03-13T09:26:14.313Z,59.08
2023-03-13T09:28:44.736Z,59.53
2023-03-13T09:31:19.415Z,58.59
2023-03-13T09:33:47.468Z,59.01
2023-03-13T09:36:14.631Z,59.09
2023-03-13T09:38:41.675Z,57.60
2023-03-13T09:41:17.223Z,56.64
2023-03-13T09:43:50.091Z,56.75
2023-03-13T09:46:26.172Z,56.20
2023-03-13T09:49:00.790Z,56.33
2023-03-13T09:51:38.226Z,56.84
2023-03-13T09:54:19.395Z,56.80
2023-03-13T09:56:56.132Z,56.81
2023-03-13T09:59:36.819Z,56.19
2023-03-13T10:02:03.826Z,56.41
2023-03-13T10:04:41.122Z,56.27
2023-03-13T10:07:11.148Z,56.00
2023-03-13T10:09:40.309Z,54.78
2023-03-13T10:12:20.854Z,53.15
2023-03-13T10:15:03.747Z,52.99
2023-03-13T10:17:32.812Z,53.42
2023-03-13T10:20:10.112Z,52.58
2023-03-13T10:22:37.306Z,53.18
2023-03-13T10:25:23.953Z,52.42
2023-03-13T10:27:51.270Z,52.84
2023-03-13T10:30:23.478Z,53.08
2023-03-13T10:32:50.352Z,52.21
2023-03-13T10:35:22.185Z,52.00
2023-03-13T10:37:48.877Z,53.19
2023-03-13T10:40:25.185Z,53.16
2023-03-13T10:42:59.051Z,51.72
2023-03-13T10:45:31.548Z,49.90
2023-03-13T10:48:20.971Z,50.19
2023-03-13T10:50:56.814Z,48.91
2023-03-13T10:53:30.274Z,46.45
2023-03-13T10:56:02.886Z,47.83
2023-03-13T10:58:45.571Z,48.20
2023-03-13T11:01:18.448Z,48.06
2023-03-13T11:03:49.506Z,46.80
2023-03-13T11:06:25.746Z,47.31
2023-03-13T11:08:59.356Z,47.20
2023-03-13T11:11:30.416Z,47.70
2023-03-13T11:14:07.880Z,47.06
2023-03-13T11:16:42.240Z,47.87
2023-03-13T11:19:28.701Z,46.85
2023-03-13T11:22:13.951Z,45.60
2023-03-13T11:24:45.750Z,45.47
2023-03-13T11:27:34.567Z,46.03
2023-03-13T11:30:23.187Z,46.77
2023-03-13T11:33:22.122Z,47.65
2023-03-13T11:35:53.654Z,47.61
2023-03-13T11:38:27.088Z,48.81
2023-03-13T11:41:05.803Z,49.53
2023-03-13T11:43:41.100Z,49.64
2023-03-13T11:46:14.913Z,49.72
2023-03-13T11:48:53.799Z,49.05
2023-03-13T11:51:52.962Z,48.92
2023-03-13T11:55:05.015Z,49.02
2023-03-13T11:58:06.883Z,48.99
2023-03-13T12:01:14.106Z,48.30
2023-03-13T12:03:58.261Z,49.18
2023-03-13T12:06:37.551Z,47.93
2023-03-13T12:09:09.886Z,47.57
2023-03-13T12:12:03.994Z,47.16
2023-03-13T12:14:50.083Z,46.65
2023-03-13T12:17:38.294Z,46.88
2023-03-13T12:20:11.232Z,47.73
2023-03-13T12:22:44.911Z,48.50
2023-03-13T12:25:12.556Z,48.21
2023-03-13T12:27:41.963Z,47.07
2023-03-13T12:30:18.409Z,47.44
2023-03-13T12:32:49.717Z,47.94
2023-03-13T12:35:28.277Z,48.66
2023-03-13T12:38:20.544Z,49.19
2023-03-13T12:40:52.641Z,49.54
2023-03-13T12:43:30.374Z,50.18
2023-03-13T12:46:38.529Z,50.84
2023-03-13T12:49:24.736Z,51.03
2023-03-13T12:52:14.858Z,51.66
2023-03-13T12:54:47.716Z,51.72
2023-03-13T12:57:51.725Z,52.30
2023-03-13T13:00:21.182Z,52.69
2023-03-13T13:02:47.760Z,52.46
2023-03-13T13:05:18.616Z,52.44
2023-03-13T13:07:53.048Z,52.76
2023-03-13T13:10:25.770Z,52.66
2023-03-13T13:13:14.367Z,52.67
2023-03-13T13:16:01.253Z,52.74
2023-03-13T13:18:29.801Z,52.90
2023-03-13T13:21:02.540Z,53.11
2023-03-13T13:23:41.498Z,52.41
2023-03-13T13:26:26.323Z,52.83
2023-03-13T13:28:53.583Z,52.62
2023-03-13T13:31:59.679Z,52.70
2023-03-13T13:34:33.888Z,53.00
2023-03-13T13:37:01.374Z,53.21
2023-03-13T13:39:28.115Z,53.44
2023-03-13T13:41:55.446Z,53.32
2023-03-13T13:44:28.524Z,53.27
2023-03-13T13:46:55.966Z,53.48
2023-03-13T13:49:35.029Z,53.65
2023-03-13T13:52:04.626Z,53.96
2023-03-13T13:54:33.975Z,54.15
2023-03-13T13:57:12.174Z,53.73
2023-03-13T13:59:42.540Z,53.82
2023-03-13T14:02:10.358Z,53.75
2023-03-13T14:04:38.637Z,53.97
2023-03-13T14:07:06.141Z,53.97
2023-03-13T14:09:49.533Z,54.05
2023-03-13T14:12:29.979Z,54.15
2023-03-13T14:15:13.371Z,54.14
2023-03-13T14:17:50.824Z,54.29
2023-03-13T14:20:33.798Z,54.61
2023-03-13T14:23:04.270Z,54.58
2023-03-13T14:25:51.193Z,54.65
2023-03-13T14:28:21.991Z,54.43
2023-03-13T14:30:50.405Z,55.06
2023-03-13T14:33:17.355Z,55.35
2023-03-13T14:35:44.878Z,54.87
2023-03-13T14:38:22.391Z,54.69
2023-03-13T14:40:50.469Z,54.60
2023-03-13T14:43:37.642Z,55.02
2023-03-13T14:46:15.535Z,55.46
2023-03-13T14:48:42.826Z,55.55
2023-03-13T14:51:15.728Z,54.94
2023-03-13T14:54:12.619Z,55.05
2023-03-13T14:56:42.600Z,54.75
2023-03-13T14:59:17.596Z,54.74
2023-03-13T15:01:45.540Z,54.88
2023-03-13T15:04:13.316Z,55.02
2023-03-13T15:06:42.491Z,55.25
2023-03-13T15:09:09.497Z,55.37
2023-03-13T15:11:59.579Z,55.52
2023-03-13T15:14:40.837Z,55.35
2023-03-13T15:17:24.287Z,55.54
2023-03-13T15:19:55.745Z,55.43
2023-03-13T15:22:32.603Z,55.67
2023-03-13T15:25:06.400Z,55.79
2023-03-13T15:27:46.036Z,56.37
2023-03-13T15:30:17.231Z,56.45
2023-03-13T15:32:46.538Z,56.45
2023-03-13T15:35:32.776Z,56.61
2023-03-13T15:38:00.963Z,56.58
2023-03-13T15:40:28.088Z,56.69
2023-03-13T15:42:54.891Z,56.81
2023-03-13T15:45:22.142Z,57.17
2023-03-13T15:47:49.412Z,56.89
2023-03-13T15:50:18.181Z,56.77
2023-03-13T15:52:44.862Z,56.82
2023-03-13T15:55:16.748Z,56.94
2023-03-13T15:57:48.661Z,56.86
2023-03-13T16:00:24.284Z,56.93
2023-03-13T16:02:51.400Z,57.00
2023-03-13T16:05:18.618Z,57.12
2023-03-13T16:07:47.865Z,57.18
2023-03-13T16:10:19.998Z,56.75
2023-03-13T16:12:48.386Z,57.02
2023-03-13T16:15:16.735Z,56.91
2023-03-13T16:17:43.623Z,56.81
2023-03-13T16:20:17.930Z,57.18
2023-03-13T16:22:45.962Z,57.20
2023-03-13T16:25:13.887Z,57.31
2023-03-13T16:27:43.210Z,57.15
2023-03-13T16:30:17.946Z,57.21
2023-03-13T16:32:48.057Z,57.15
2023-03-13T16:35:14.633Z,57.33
2023-03-13T16:37:41.305Z,57.29
2023-03-13T16:40:16.626Z,57.37
2023-03-13T16:42:43.289Z,57.48
2023-03-13T16:45:14.396Z,57.56
2023-03-13T16:47:42.338Z,57.58
2023-03-13T16:50:17.838Z,57.68
2023-03-13T16:52:44.650Z,58.04
2023-03-13T16:55:11.216Z,57.90
2023-03-13T16:57:38.512Z,57.92
2023-03-13T17:00:19.828Z,58.03
2023-03-13T17:02:47.625Z,58.17
2023-03-13T17:05:15.535Z,58.35
2023-03-13T17:07:47.294Z,58.30
2023-03-13T17:10:30.693Z,58.37
2023-03-13T17:12:58.623Z,58.28
2023-03-13T17:15:25.228Z,58.62
2023-03-13T17:17:53.536Z,58.49
2023-03-13T17:20:26.917Z,58.73
2023-03-13T17:22:55.650Z,58.96
2023-03-13T17:25:22.788Z,59.17
2023-03-13T17:27:51.604Z,58.95
2023-03-13T17:30:26.578Z,59.20
2023-03-13T17:32:53.882Z,59.06
2023-03-13T17:35:21.362Z,59.44
2023-03-13T17:37:48.477Z,59.37
2023-03-13T17:40:26.203Z,59.58
2023-03-13T17:42:55.548Z,59.76
2023-03-13T17:45:22.387Z,59.64
2023-03-13T17:50:22.868Z,60.01
2023-03-13T17:52:50.537Z,59.90
2023-03-13T17:55:17.459Z,59.72
2023-03-13T17:57:44.237Z,59.75
2023-03-13T18:00:33.179Z,59.83
2023-03-13T18:03:00.212Z,59.61
2023-03-13T18:05:27.831Z,59.78
2023-03-13T18:07:55.582Z,59.86
2023-03-13T18:10:23.642Z,59.68
2023-03-13T18:12:50.944Z,59.91
2023-03-13T18:15:18.881Z,60.00
2023-03-13T18:17:50.467Z,59.95
2023-03-13T18:20:20.342Z,60.12
2023-03-13T18:22:47.516Z,60.11
2023-03-13T18:25:14.558Z,60.16
2023-03-13T18:27:43.340Z,60.03
2023-03-13T18:30:18.446Z,60.20
2023-03-13T18:32:46.745Z,60.29
2023-03-13T18:35:13.999Z,59.87
2023-03-13T18:37:45.108Z,59.96
2023-03-13T18:40:22.818Z,59.97
2023-03-13T18:42:50.456Z,60.25
2023-03-13T18:45:19.573Z,59.90
2023-03-13T18:47:47.558Z,60.35
2023-03-13T18:50:19.836Z,60.46
2023-03-13T18:52:47.045Z,60.25
2023-03-13T18:55:13.973Z,60.05
2023-03-13T18:57:44.603Z,60.33
2023-03-13T19:00:23.824Z,60.27
2023-03-13T19:02:50.931Z,60.48
2023-03-13T19:05:18.489Z,60.22
2023-03-13T19:07:48.016Z,60.46
2023-03-13T19:10:26.170Z,60.35
2023-03-13T19:12:56.198Z,60.08
2023-03-13T19:15:25.332Z,59.96
2023-03-13T19:17:55.615Z,59.72
2023-03-13T19:20:27.016Z,59.86
2023-03-13T19:22:55.973Z,59.68
2023-03-13T19:25:23.256Z,59.80
2023-03-13T19:27:51.145Z,59.56
2023-03-13T19:30:20.763Z,59.44
2023-03-13T19:32:49.580Z,59.29
2023-03-13T19:35:18.212Z,59.31
2023-03-13T19:37:46.868Z,59.49
2023-03-13T19:40:25.252Z,59.27
2023-03-13T19:42:52.346Z,59.46
2023-03-13T19:45:21.106Z,59.66
2023-03-13T19:47:50.187Z,59.51
2023-03-13T19:50:22.590Z,59.49
2023-03-13T19:52:49.674Z,59.55
2023-03-13T19:55:16.550Z,59.50
2023-03-13T19:57:43.790Z,59.35
2023-03-13T20:00:19.214Z,59.57
2023-03-13T20:02:45.876Z,59.36
2023-03-13T20:05:13.263Z,59.64
2023-03-13T20:07:40.628Z,59.49
2023-03-13T20:10:08.210Z,59.97
2023-03-13T20:12:35.411Z,59.56
2023-03-13T20:15:04.759Z,59.85
2023-03-13T20:17:31.941Z,59.96
2023-03-13T20:20:00.213Z,60.08
2023-03-13T20:22:26.869Z,59.92
2023-03-13T20:24:55.475Z,60.07
2023-03-13T20:27:23.516Z,60.35
2023-03-13T20:29:50.244Z,60.33
2023-03-13T20:32:17.060Z,60.31
2023-03-13T20:34:44.871Z,60.27
2023-03-13T20:37:11.947Z,60.45
2023-03-13T20:39:43.176Z,60.50
2023-03-13T20:42:10.064Z,60.58
2023-03-13T20:44:36.864Z,60.69
2023-03-13T20:47:04.162Z,60.55
2023-03-13T20:49:31.041Z,60.63
2023-03-13T20:51:57.635Z,60.57
2023-03-13T20:54:24.228Z,60.62
2023-03-13T20:56:50.748Z,60.73
2023-03-13T20:59:17.430Z,60.71
2023-03-13T21:01:44.147Z,60.58
2023-03-13T21:04:12.718Z,60.63
2023-03-13T21:06:40.104Z,60.59
2023-03-13T21:09:10.331Z,60.55
2023-03-13T21:11:37.676Z,60.61
2023-03-13T21:14:05.653Z,60.87
2023-03-13T21:16:33.735Z,60.83
2023-03-13T21:19:04.661Z,60.97
2023-03-13T21:21:32.844Z,61.03
2023-03-13T21:24:05.905Z,61.09
2023-03-13T21:26:34.215Z,61.28
2023-03-13T21:29:00.915Z,61.67
2023-03-13T21:31:29.392Z,61.69
2023-03-13T21:33:56.764Z,61.77
2023-03-13T21:36:24.434Z,61.91
2023-03-13T21:38:51.892Z,62.18
2023-03-13T21:41:23.748Z,61.99
2023-03-13T21:43:57.857Z,62.22
2023-03-13T21:46:24.862Z,62.53
2023-03-13T21:48:51.961Z,62.61
2023-03-13T21:51:18.739Z,62.95
2023-03-13T21:53:49.048Z,62.81
2023-03-13T21:56:16.869Z,62.75
2023-03-13T21:58:44.840Z,62.99
2023-03-13T22:01:12.252Z,62.95
2023-03-13T22:03:39.363Z,62.99
2023-03-13T22:06:17.143Z,63.23
2023-03-13T22:08:50.544Z,63.28
2023-03-13T22:11:22.783Z,63.66
2023-03-13T22:13:52.152Z,63.76
2023-03-13T22:16:20.469Z,63.68
2023-03-13T22:18:50.938Z,63.73
2023-03-13T22:21:17.932Z,63.94
2023-03-13T22:23:45.450Z,64.27
2023-03-13T22:26:14.115Z,64.14
2023-03-13T22:28:41.166Z,64.35
2023-03-13T22:31:09.241Z,64.53
2023-03-13T22:33:36.241Z,64.85
2023-03-13T22:36:03.937Z,64.82
2023-03-13T22:38:35.538Z,64.97
2023-03-13T22:41:05.223Z,65.04
2023-03-13T22:43:34.780Z,65.13
2023-03-13T22:46:04.456Z,65.21
2023-03-13T22:48:31.492Z,65.37
2023-03-13T22:51:06.644Z,65.07
2023-03-13T22:53:36.360Z,65.45
2023-03-13T22:56:05.824Z,65.57
2023-03-13T22:58:35.021Z,65.59
2023-03-13T23:01:11.825Z,65.70
2023-03-13T23:03:40.242Z,65.88
2023-03-13T23:06:09.217Z,66.00
2023-03-13T23:08:37.197Z,65.92
2023-03-13T23:11:04.963Z,66.06
2023-03-13T23:13:32.310Z,66.13
2023-03-13T23:16:00.517Z,66.07
2023-03-13T23:18:27.966Z,66.18
2023-03-13T23:20:54.841Z,66.19
2023-03-13T23:23:21.726Z,66.51
2023-03-13T23:25:49.066Z,66.52
2023-03-13T23:28:18.180Z,66.67
2023-03-13T23:30:45.359Z,66.75
2023-03-13T23:33:13.818Z,66.75
2023-03-13T23:35:48.950Z,66.73
2023-03-13T23:38:17.837Z,66.74
2023-03-13T23:40:46.001Z,66.63
2023-03-13T23:43:12.566Z,66.54
2023-03-13T23:45:39.173Z,66.97
2023-03-13T23:48:06.617Z,67.04
2023-03-13T23:50:33.417Z,66.96
2023-03-13T23:53:00.368Z,67.23
2023-03-13T23:55:27.677Z,67.43
2023-03-13T23:57:59.363Z,67.44
